Time;durP1;ratioP1;P1;durP2;ratioP2;P2;SDS_P1;SDS_P2;PMS_P1;PMS_P2;Temp;Humidity;BMP_temperature;BMP_pressure;BME280_temperature;BME280_humidity;BME280_pressure;Samples;Min_cycle;Max_cycle;Signal;HPM_P1;HPM_P2
2021/10/15 00:00:14;;;;;;;;;;;;;;;11.06;100.00;100872.84;5094045;28;20461;-68
2021/10/15 00:02:41;;;;;;;;;;;;;;;11.06;100.00;100870.13;5093827;28;19967;-68
2021/10/15 00:05:07;;;;;;;;;;;;;;;11.08;100.00;100868.16;5093969;28;20386;-68
2021/10/15 00:07:33;;;;;;;;;;;;;;;11.07;100.00;100868.28;5093908;28;20014;-68
2021/10/15 00:10:00;;;;;;;;;;;;;;;11.09;100.00;100867.19;5093851;28;20011;-68
2021/10/15 00:12:26;;;;;;;;;;;;;;;11.09;100.00;100853.59;5093918;28;20311;-68
2021/10/15 00:14:53;;;;;;;;;;;;;;;11.13;100.00;100859.63;5093691;28;20354;-68
2021/10/15 00:17:20;;;;;;;;;;;;;;;11.13;100.00;100849.63;5093335;28;20335;-68
2021/10/15 00:19:46;;;;;;;;;;;;;;;11.14;100.00;100847.78;5093789;28;20011;-68
2021/10/15 00:22:13;;;;;;;;;;;;;;;11.14;100.00;100845.91;5093533;28;20020;-68
2021/10/15 00:24:39;;;;;;;;;;;;;;;11.15;100.00;100847.66;5093567;28;19930;-68
2021/10/15 00:27:06;;;;;;;;;;;;;;;11.17;100.00;100839.38;5093374;28;20014;-68
2021/10/15 00:29:32;;;;;;;;;;;;;;;11.17;100.00;100826.66;5093613;28;19924;-68
2021/10/15 00:31:59;;;;;;;;;;;;;;;11.18;100.00;100828.41;5093428;28;20015;-68
2021/10/15 00:34:27;;;;;;;;;;;;;;;11.18;100.00;100817.53;5093667;28;19928;-68
2021/10/15 00:36:53;;;;;;;;;;;;;;;11.16;100.00;100816.78;5093024;28;20011;-68
2021/10/15 00:39:19;;;;;;;;;;;;;;;11.20;100.00;100822.81;5093274;28;20015;-68
2021/10/15 00:41:46;;;;;;;;;;;;;;;11.20;100.00;100811.97;5093382;28;20459;-68
2021/10/15 00:44:13;;;;;;;;;;;;;;;11.19;100.00;100813.78;5092933;28;20305;-68
2021/10/15 00:46:40;;;;;;;;;;;;;;;11.20;100.00;100809.25;5093162;28;19963;-68
2021/10/15 00:49:08;;;;;;;;;;;;;;;11.20;100.00;100810.09;5093123;28;20022;-68
2021/10/15 00:51:36;;;;;;;;;;;;;;;11.20;100.00;100810.09;5092921;28;20020;-68
2021/10/15 00:54:03;;;;;;;;;;;;;;;11.21;100.00;100803.69;5092792;28;19928;-68
2021/10/15 00:56:29;;;;;;;;;;;;;;;11.22;100.00;100799.97;5092905;28;19924;-71
2021/10/15 00:58:56;;;;;;;;;;;;;;;11.22;100.00;100799.09;5092827;28;20046;-71
2021/10/15 01:01:22;;;;;;;;;;;;;;;11.24;100.00;100791.69;5092617;28;19990;-71
2021/10/15 01:03:49;;;;;;;;;;;;;;;11.23;100.00;100793.53;5092736;28;20015;-71
2021/10/15 01:06:15;;;;;;;;;;;;;;;11.24;100.00;100797.13;5092683;28;19924;-72
2021/10/15 01:08:45;;;;;;;;;;;;;;;11.23;100.00;100795.41;5092699;28;20435;-72
2021/10/15 01:11:13;;;;;;;;;;;;;;;11.23;100.00;100790.81;5092568;28;20023;-72
2021/10/15 01:13:40;;;;;;;;;;;;;;;11.25;100.00;100789.81;5092876;28;20043;-72
2021/10/15 01:16:07;;;;;;;;;;;;;;;11.25;100.00;100776.25;5092379;28;20011;-72
2021/10/15 01:18:34;;;;;;;;;;;;;;;11.24;100.00;100783.53;5092886;28;20011;-72
2021/10/15 01:21:02;;;;;;;;;;;;;;;11.22;100.00;100770.09;5092591;28;19985;-71
2021/10/15 01:23:28;;;;;;;;;;;;;;;11.23;100.00;100768.22;5092509;28;20019;-72
2021/10/15 01:25:55;;;;;;;;;;;;;;;11.22;100.00;100761.06;5092535;28;20010;-72
2021/10/15 01:28:21;;;;;;;;;;;;;;;11.23;100.00;100755.47;5092270;28;20026;-72
2021/10/15 01:30:48;;;;;;;;;;;;;;;11.22;100.00;100751.06;5092563;28;19959;-72
2021/10/15 01:33:14;;;;;;;;;;;;;;;11.21;100.00;100754.78;5092683;28;20023;-71
2021/10/15 01:35:41;;;;;;;;;;;;;;;11.15;100.00;100743.56;5092214;28;20015;-72
2021/10/15 01:38:08;;;;;;;;;;;;;;;11.14;100.00;100745.38;5092091;28;20352;-72
2021/10/15 01:40:34;;;;;;;;;;;;;;;11.12;100.00;100741.94;5092268;28;20315;-72
2021/10/15 01:43:01;;;;;;;;;;;;;;;11.09;100.00;100744.94;5092072;28;20483;-72
2021/10/15 01:45:28;;;;;;;;;;;;;;;11.08;100.00;100735.06;5092039;28;20458;-72
2021/10/15 01:47:55;;;;;;;;;;;;;;;11.08;100.00;100743.19;5094379;28;19931;-72
2021/10/15 01:50:22;;;;;;;;;;;;;;;11.07;100.00;100738.75;5091969;28;20027;-72
2021/10/15 01:52:48;;;;;;;;;;;;;;;11.05;100.00;100735.31;5090775;28;19924;-72
2021/10/15 01:55:16;;;;;;;;;;;;;;;11.04;100.00;100728.16;5091834;28;20022;-72
2021/10/15 01:57:42;;;;;;;;;;;;;;;11.02;100.00;100724.69;5091910;28;19931;-71
2021/10/15 02:00:11;;;;;;;;;;;;;;;10.99;100.00;100720.38;5091909;28;19931;-72
2021/10/15 02:02:41;;;;;;;;;;;;;;;10.99;100.00;100717.66;5092300;28;19964;-72
2021/10/15 02:05:08;;;;;;;;;;;;;;;10.99;100.00;100720.38;5091408;28;20019;-72
2021/10/15 02:07:34;;;;;;;;;;;;;;;10.98;100.00;100721.38;5091916;28;20019;-72
2021/10/15 02:10:01;;;;;;;;;;;;;;;10.99;100.00;100714.94;5091877;28;20019;-72
2021/10/15 02:12:28;;;;;;;;;;;;;;;10.99;100.00;100716.81;5091767;28;20463;-72
2021/10/15 02:14:55;;;;;;;;;;;;;;;11.00;100.00;100718.53;5091734;28;19931;-72
2021/10/15 02:17:21;;;;;;;;;;;;;;;11.01;100.00;100721.13;5091640;28;20023;-72
2021/10/15 02:19:47;;;;;;;;;;;;;;;11.00;100.00;100713.09;5091378;28;20023;-72
2021/10/15 02:22:13;;;;;;;;;;;;;;;11.00;100.00;100713.09;5094998;28;19978;-72
2021/10/15 02:24:40;;;;;;;;;;;;;;;10.97;100.00;100702.47;5095831;28;20027;-72
2021/10/15 02:27:06;;;;;;;;;;;;;;;10.94;100.00;100709.03;5095776;28;20011;-72
2021/10/15 02:29:34;;;;;;;;;;;;;;;10.92;100.00;100705.59;5095847;28;19955;-69
2021/10/15 02:32:00;;;;;;;;;;;;;;;10.87;100.00;100692.38;5095745;28;20030;-68
2021/10/15 02:34:26;;;;;;;;;;;;;;;10.86;100.00;100697.94;5095576;28;20038;-71
2021/10/15 02:36:53;;;;;;;;;;;;;;;10.80;100.00;100688.44;5095461;28;20369;-71
2021/10/15 02:39:20;;;;;;;;;;;;;;;10.78;100.00;100687.69;5095466;28;19931;-68
2021/10/15 02:41:47;;;;;;;;;;;;;;;10.75;100.00;100678.97;5095636;28;20015;-68
2021/10/15 02:44:14;;;;;;;;;;;;;;;10.74;100.00;100686.22;5095485;28;19968;-68
2021/10/15 02:46:43;;;;;;;;;;;;;;;10.74;100.00;100669.94;5095385;28;19924;-68
2021/10/15 02:49:10;;;;;;;;;;;;;;;10.71;100.00;100676.50;5094049;28;19930;-68
2021/10/15 02:51:36;;;;;;;;;;;;;;;10.70;100.00;100669.34;5095505;28;20031;-72
2021/10/15 02:54:03;;;;;;;;;;;;;;;10.70;100.00;100665.75;5095099;28;20022;-72
2021/10/15 02:56:29;;;;;;;;;;;;;;;10.72;100.00;100670.06;5095299;28;19924;-68
2021/10/15 02:58:56;;;;;;;;;;;;;;;10.73;100.00;100670.97;5093997;28;20379;-69
2021/10/15 03:01:22;;;;;;;;;;;;;;;10.71;100.00;100662.91;5095156;28;19997;-68
2021/10/15 03:03:51;;;;;;;;;;;;;;;10.74;100.00;100663.66;5095203;28;19931;-69
2021/10/15 03:06:18;;;;;;;;;;;;;;;10.75;100.00;100658.09;5095003;28;20022;-69
2021/10/15 03:08:44;;;;;;;;;;;;;;;10.75;100.00;100649.09;5095132;28;19932;-68
2021/10/15 03:11:11;;;;;;;;;;;;;;;10.74;100.00;100641.94;5095054;28;20019;-68
2021/10/15 03:13:37;;;;;;;;;;;;;;;10.72;100.00;100642.06;5094691;28;20019;-68
2021/10/15 03:16:03;;;;;;;;;;;;;;;10.72;100.00;100636.66;5094749;28;20015;-68
2021/10/15 03:18:30;;;;;;;;;;;;;;;10.72;100.00;100633.94;5095254;28;20018;-68
2021/10/15 03:20:57;;;;;;;;;;;;;;;10.75;100.00;100646.41;5094831;28;20023;-68
2021/10/15 03:23:23;;;;;;;;;;;;;;;10.75;100.00;100627.38;5094831;28;19951;-67
2021/10/15 03:25:50;;;;;;;;;;;;;;;10.76;100.00;100627.25;5094520;28;20336;-68
2021/10/15 03:28:16;;;;;;;;;;;;;;;10.77;100.00;100631.69;5094625;28;20035;-68
2021/10/15 03:30:42;;;;;;;;;;;;;;;10.78;100.00;100624.41;5094597;28;20026;-72
2021/10/15 03:33:09;;;;;;;;;;;;;;;10.76;100.00;100613.69;5094514;28;19924;-71
2021/10/15 03:35:35;;;;;;;;;;;;;;;10.76;100.00;100610.97;5098832;28;19971;-71
2021/10/15 03:38:02;;;;;;;;;;;;;;;10.75;100.00;100603.81;5114606;28;19924;-71
2021/10/15 03:40:29;;;;;;;;;;;;;;;10.74;100.00;100604.78;5114930;28;19959;-70
2021/10/15 03:42:55;;;;;;;;;;;;;;;10.75;100.00;100611.94;5114857;27;19966;-70
2021/10/15 03:45:21;;;;;;;;;;;;;;;10.75;100.00;100609.22;5114638;28;20022;-70
2021/10/15 03:47:48;;;;;;;;;;;;;;;10.75;100.00;100605.66;5093448;28;19923;-71
2021/10/15 03:50:15;;;;;;;;;;;;;;;10.76;100.00;100602.81;5110087;28;20018;-71
2021/10/15 03:52:42;;;;;;;;;;;;;;;10.77;100.00;100593.69;5111713;28;19931;-71
2021/10/15 03:55:10;;;;;;;;;;;;;;;10.79;100.00;100597.13;5114731;28;19930;-71
2021/10/15 03:57:37;;;;;;;;;;;;;;;10.83;100.00;100593.16;5114515;28;19959;-71
2021/10/15 04:00:04;;;;;;;;;;;;;;;10.83;100.00;100587.72;5114514;28;19963;-70
2021/10/15 04:02:39;;;;;;;;;;;;;;;10.84;100.00;100583.16;5114570;28;19924;-70
2021/10/15 04:05:06;;;;;;;;;;;;;;;10.85;100.00;100583.03;5112503;28;20018;-69
2021/10/15 04:07:32;;;;;;;;;;;;;;;10.87;100.00;100580.19;5114374;27;20022;-69
2021/10/15 04:09:58;;;;;;;;;;;;;;;10.87;100.00;100583.75;5114273;28;19924;-69
2021/10/15 04:12:26;;;;;;;;;;;;;;;10.87;100.00;100585.63;5114182;28;20146;-69
2021/10/15 04:14:52;;;;;;;;;;;;;;;10.86;100.00;100582.06;5114149;28;20031;-68
2021/10/15 04:17:19;;;;;;;;;;;;;;;10.88;100.00;100574.63;5110900;28;19931;-69
2021/10/15 04:19:45;;;;;;;;;;;;;;;10.88;100.00;100568.34;5114407;28;20466;-69
2021/10/15 04:22:11;;;;;;;;;;;;;;;10.89;100.00;100564.63;5114151;28;19928;-69
2021/10/15 04:24:38;;;;;;;;;;;;;;;10.91;100.00;100569.94;5107376;28;20378;-69
2021/10/15 04:27:04;;;;;;;;;;;;;;;10.92;100.00;100560.81;5093277;28;20019;-69
2021/10/15 04:29:32;;;;;;;;;;;;;;;10.92;100.00;100564.38;5097888;28;19924;-68
2021/10/15 04:31:58;;;;;;;;;;;;;;;10.90;100.00;100550.03;5113601;28;19976;-68
2021/10/15 04:34:25;;;;;;;;;;;;;;;10.89;100.00;100562.78;5113646;28;20018;-69
2021/10/15 04:36:51;;;;;;;;;;;;;;;10.89;100.00;100554.63;5110244;28;19985;-69
2021/10/15 04:39:17;;;;;;;;;;;;;;;10.89;100.00;100548.34;5112884;28;19923;-69
2021/10/15 04:41:44;;;;;;;;;;;;;;;10.86;100.00;100544.03;5112059;28;20403;-69
2021/10/15 04:44:10;;;;;;;;;;;;;;;10.87;100.00;100536.75;5101442;28;20018;-69
2021/10/15 04:46:38;;;;;;;;;;;;;;;10.83;100.00;100530.69;5104625;28;19928;-69
2021/10/15 04:49:04;;;;;;;;;;;;;;;10.85;100.00;100531.44;5112240;28;20018;-69
2021/10/15 04:51:30;;;;;;;;;;;;;;;10.86;100.00;100519.59;5112043;28;20031;-69
2021/10/15 04:53:56;;;;;;;;;;;;;;;10.88;100.00;100516.75;5112301;28;20019;-70
2021/10/15 04:56:23;;;;;;;;;;;;;;;10.84;100.00;100502.56;5113192;28;20484;-69
2021/10/15 04:58:49;;;;;;;;;;;;;;;10.84;100.00;100508.00;5113477;27;19963;-70
2021/10/15 05:01:15;;;;;;;;;;;;;;;10.83;100.00;100506.25;5112906;28;20018;-70
2021/10/15 05:03:43;;;;;;;;;;;;;;;10.83;100.00;100499.97;5112925;28;20023;-70
2021/10/15 05:06:10;;;;;;;;;;;;;;;10.80;100.00;100489.41;5095592;28;20380;-70
2021/10/15 05:08:44;;;;;;;;;;;;;;;10.79;100.00;100491.22;5092875;28;19924;-70
2021/10/15 05:11:10;;;;;;;;;;;;;;;10.78;100.00;100488.66;5092517;28;19977;-70
2021/10/15 05:13:37;;;;;;;;;;;;;;;10.77;100.00;100481.50;5092697;28;20030;-70
2021/10/15 05:16:03;;;;;;;;;;;;;;;10.73;100.00;100478.19;5092415;28;20018;-70
2021/10/15 05:18:30;;;;;;;;;;;;;;;10.74;100.00;100479.06;5092744;28;19946;-70
2021/10/15 05:20:57;;;;;;;;;;;;;;;10.78;100.00;100483.22;5092192;28;20023;-69
2021/10/15 05:23:23;;;;;;;;;;;;;;;10.80;100.00;100482.09;5092350;28;20015;-69
2021/10/15 05:25:50;;;;;;;;;;;;;;;10.86;100.00;100473.44;5092293;28;20467;-69
2021/10/15 05:28:16;;;;;;;;;;;;;;;10.87;100.00;100466.97;5092619;28;19959;-68
2021/10/15 05:30:42;;;;;;;;;;;;;;;10.83;100.00;100459.25;5092472;28;19924;-68
2021/10/15 05:33:09;;;;;;;;;;;;;;;10.77;100.00;100460.66;5092357;28;20367;-69
2021/10/15 05:35:36;;;;;;;;;;;;;;;10.75;100.00;100467.22;5092159;28;20010;-69
2021/10/15 05:38:04;;;;;;;;;;;;;;;10.69;100.00;100455.88;5091958;28;20376;-69
2021/10/15 05:40:30;;;;;;;;;;;;;;;10.64;100.00;100457.28;5092373;28;20352;-69
2021/10/15 05:42:56;;;;;;;;;;;;;;;10.55;100.00;100457.06;5091074;28;19997;-68
2021/10/15 05:45:25;;;;;;;;;;;;;;;10.49;100.00;100443.13;5091770;28;20018;-69
2021/10/15 05:47:52;;;;;;;;;;;;;;;10.43;100.00;100443.69;5102558;28;19923;-68
2021/10/15 05:50:18;;;;;;;;;;;;;;;10.35;100.00;100449.75;5112459;28;20027;-69
2021/10/15 05:52:46;;;;;;;;;;;;;;;10.29;100.00;100442.97;5112300;28;19959;-69
2021/10/15 06:00:50;;;;;;;;;;;;;;;10.27;100.00;100444.94;5112411;28;20049;-68
2021/10/15 06:03:18;;;;;;;;;;;;;;;10.29;100.00;100437.53;5111999;28;19927;-68
2021/10/15 06:14:21;;;;;;;;;;;;;;;10.58;100.00;100427.94;5085760;28;19971;-68
2021/10/15 06:16:50;;;;;;;;;;;;;;;10.64;100.00;100424.69;5112189;28;19923;-68
2021/10/15 06:19:18;;;;;;;;;;;;;;;10.68;100.00;100426.16;5112143;28;20443;-68
2021/10/15 06:21:44;;;;;;;;;;;;;;;10.74;100.00;100422.03;5112184;28;19985;-69
2021/10/15 06:24:11;;;;;;;;;;;;;;;10.76;100.00;100412.78;5112044;28;19982;-69
2021/10/15 06:26:38;;;;;;;;;;;;;;;10.81;100.00;100415.06;5111824;28;20030;-69
2021/10/15 06:29:05;;;;;;;;;;;;;;;10.77;100.00;100403.63;5111795;28;19983;-69
2021/10/15 06:31:31;;;;;;;;;;;;;;;10.76;100.00;100407.34;5112136;28;19924;-69
2021/10/15 06:33:58;;;;;;;;;;;;;;;10.77;100.00;100406.34;5110757;28;19924;-70
2021/10/15 06:36:24;;;;;;;;;;;;;;;10.80;100.00;100414.22;5111802;28;19973;-71
2021/10/15 06:38:51;;;;;;;;;;;;;;;10.86;100.00;100408.25;5111909;28;20577;-71
2021/10/15 06:41:17;;;;;;;;;;;;;;;10.91;100.00;100405.13;5111866;28;19995;-70
2021/10/15 06:43:45;;;;;;;;;;;;;;;10.98;100.00;100400.03;5111765;28;19966;-70
2021/10/15 06:46:11;;;;;;;;;;;;;;;11.01;100.00;100397.91;5111627;28;20272;-71
2021/10/15 06:48:37;;;;;;;;;;;;;;;11.01;100.00;100402.47;5111615;28;20018;-70
2021/10/15 06:51:04;;;;;;;;;;;;;;;11.01;100.00;100400.63;5111668;28;20022;-70
2021/10/15 06:53:30;;;;;;;;;;;;;;;11.04;100.00;100400.34;5110634;28;20026;-70
2021/10/15 06:55:56;;;;;;;;;;;;;;;11.10;100.00;100392.66;5111562;28;19980;-71
2021/10/15 06:58:23;;;;;;;;;;;;;;;11.15;100.00;100395.81;5111633;28;20034;-71
2021/10/15 07:00:50;;;;;;;;;;;;;;;11.19;100.00;100398.09;5111798;28;19924;-70
2021/10/15 07:03:17;;;;;;;;;;;;;;;11.22;100.00;100403.28;5111627;28;19963;-70
2021/10/15 07:05:44;;;;;;;;;;;;;;;11.26;100.00;100403.84;5111204;28;19924;-71
2021/10/15 07:08:11;;;;;;;;;;;;;;;11.30;100.00;100393.59;5114380;28;19977;-71
2021/10/15 07:10:37;;;;;;;;;;;;;;;11.36;100.00;100387.59;5115566;28;19966;-70
2021/10/15 07:13:04;;;;;;;;;;;;;;;11.37;100.00;100395.63;5115326;28;20022;-70
2021/10/15 07:15:31;;;;;;;;;;;;;;;11.44;100.00;100387.78;5115617;28;20000;-70
2021/10/15 07:17:58;;;;;;;;;;;;;;;11.49;100.00;100388.22;5115284;28;20010;-71
2021/10/15 07:20:27;;;;;;;;;;;;;;;11.55;100.00;100386.78;5115130;28;19930;-70
2021/10/15 07:22:54;;;;;;;;;;;;;;;11.61;100.00;100380.81;5115054;28;19974;-71
2021/10/15 07:25:20;;;;;;;;;;;;;;;11.65;100.00;100381.38;5114876;28;19934;-71
2021/10/15 07:27:46;;;;;;;;;;;;;;;11.67;100.00;100373.94;5115092;28;20022;-70
2021/10/15 07:30:12;;;;;;;;;;;;;;;11.73;100.00;100371.53;5112715;28;20022;-70
2021/10/15 07:32:39;;;;;;;;;;;;;;;11.76;100.00;100372.22;5111811;28;20026;-71
2021/10/15 07:35:07;;;;;;;;;;;;;;;11.78;100.00;100381.97;5114702;28;20436;-71
2021/10/15 07:37:33;;;;;;;;;;;;;;;11.79;100.00;100361.94;5114573;28;20410;-72
2021/10/15 07:40:00;;;;;;;;;;;;;;;11.82;100.00;100369.81;5096967;28;19966;-71
2021/10/15 07:42:26;;;;;;;;;;;;;;;11.90;100.00;100369.09;5094310;28;20290;-72
2021/10/15 07:44:52;;;;;;;;;;;;;;;11.99;100.00;100354.69;5094302;28;20019;-69
2021/10/15 07:47:18;;;;;;;;;;;;;;;12.06;100.00;100352.25;5094050;28;19974;-70
2021/10/15 07:49:45;;;;;;;;;;;;;;;12.08;100.00;100346.66;5094181;28;20395;-70
2021/10/15 07:52:13;;;;;;;;;;;;;;;12.06;100.00;100354.97;5094174;28;20015;-70
2021/10/15 07:54:39;;;;;;;;;;;;;;;12.02;100.00;100361.69;5092853;28;20026;-71
2021/10/15 07:57:06;;;;;;;;;;;;;;;12.00;100.00;100352.84;5093598;28;20449;-74
2021/10/15 07:59:32;;;;;;;;;;;;;;;11.96;100.00;100354.09;5092624;28;19978;-75
2021/10/15 08:01:59;;;;;;;;;;;;;;;11.98;100.00;100354.81;5093736;28;20031;-74
2021/10/15 08:04:25;;;;;;;;;;;;;;;11.96;100.00;100344.09;5093739;28;19931;-74
2021/10/15 08:06:51;;;;;;;;;;;;;;;12.01;100.00;100349.09;5093637;28;19924;-74
2021/10/15 08:09:19;;;;;;;;;;;;;;;12.02;100.00;100343.50;5093529;28;20438;-74
2021/10/15 08:11:45;;;;;;;;;;;;;;;12.06;100.00;100354.97;5093922;28;19978;-74
2021/10/15 08:14:11;;;;;;;;;;;;;;;12.14;100.00;100343.38;5093556;28;20019;-74
2021/10/15 08:16:38;;;;;;;;;;;;;;;12.22;100.00;100348.94;5093569;28;20015;-74
2021/10/15 08:19:04;;;;;;;;;;;;;;;12.36;100.00;100344.94;5092414;28;19928;-74
2021/10/15 08:21:30;;;;;;;;;;;;;;;12.42;100.00;100347.06;5093797;28;20010;-74
2021/10/15 08:23:57;;;;;;;;;;;;;;;12.45;100.00;100333.13;5093239;28;20446;-74
2021/10/15 08:26:25;;;;;;;;;;;;;;;12.48;100.00;100346.47;5092910;28;20474;-74
2021/10/15 08:28:58;;;;;;;;;;;;;;;12.50;100.00;100336.28;5093520;28;19931;-74
2021/10/15 08:31:24;;;;;;;;;;;;;;;12.54;100.00;100334.13;5093060;28;20026;-74
2021/10/15 08:33:51;;;;;;;;;;;;;;;12.56;100.00;100332.13;5093174;28;20014;-74
2021/10/15 08:36:17;;;;;;;;;;;;;;;12.56;100.00;100330.25;5092615;28;19924;-74
2021/10/15 08:38:44;;;;;;;;;;;;;;;12.55;100.00;100324.97;5093078;28;20004;-75
2021/10/15 08:41:11;;;;;;;;;;;;;;;12.55;100.00;100325.81;5093017;28;20020;-74
2021/10/15 08:43:39;;;;;;;;;;;;;;;12.53;100.00;100329.69;5093038;28;19924;-74
2021/10/15 08:46:06;;;;;;;;;;;;;;;12.48;100.00;100341.03;5091596;28;20352;-74
2021/10/15 08:48:37;;;;;;;;;;;;;;;12.48;100.00;100346.47;5093241;28;19975;-74
2021/10/15 08:51:03;;;;;;;;;;;;;;;12.47;100.00;100354.81;5093096;28;19924;-74
2021/10/15 08:53:29;;;;;;;;;;;;;;;12.47;100.00;100355.66;5092621;28;20374;-74
2021/10/15 08:55:55;;;;;;;;;;;;;;;12.48;100.00;100357.38;5092801;28;20031;-74
2021/10/15 08:58:39;;;;;;;;;;;;;;;12.51;100.00;100348.91;5092656;28;20018;-74
2021/10/15 09:01:07;;;;;;;;;;;;;;;12.51;100.00;100339.88;5091703;28;20022;-74
2021/10/15 09:03:33;;;;;;;;;;;;;;;12.51;100.00;100335.28;5092857;28;20023;-74
2021/10/15 09:06:01;;;;;;;;;;;;;;;12.49;100.00;100336.44;5092641;28;19968;-75
2021/10/15 09:08:42;;;;;;;;;;;;;;;12.52;100.00;100347.91;5092346;28;20394;-74
2021/10/15 09:11:22;;;;;;;;;;;;;;;12.54;100.00;100345.03;5092418;28;20018;-74
2021/10/15 09:13:49;;;;;;;;;;;;;;;12.59;100.00;100350.91;5092210;28;20349;-74
2021/10/15 09:16:16;;;;;;;;;;;;;;;12.57;100.00;100352.91;5092166;28;20466;-74
2021/10/15 09:18:45;;;;;;;;;;;;;;;12.58;100.00;100356.50;5092309;28;20031;-74
2021/10/15 09:21:15;;;;;;;;;;;;;;;12.54;100.00;100348.59;5092376;28;19927;-74
2021/10/15 09:23:46;;;;;;;;;;;;;;;12.58;100.00;100338.28;5092401;28;20285;-74
2021/10/15 09:26:13;;;;;;;;;;;;;;;12.58;100.00;100335.56;5091879;28;20023;-74
2021/10/15 09:28:40;;;;;;;;;;;;;;;12.62;100.00;100325.25;5095746;28;20002;-70
2021/10/15 09:31:06;;;;;;;;;;;;;;;12.67;100.00;100345.56;5111874;28;20291;-71
2021/10/15 09:33:34;;;;;;;;;;;;;;;12.69;100.00;100334.53;5112459;28;20082;-71
2021/10/15 09:36:04;;;;;;;;;;;;;;;12.75;100.00;100331.22;5112522;28;19969;-71
2021/10/15 09:38:31;;;;;;;;;;;;;;;12.75;100.00;100330.34;5112325;28;20030;-71
2021/10/15 09:40:57;;;;;;;;;;;;;;;12.82;100.00;100332.31;5112332;28;19927;-72
2021/10/15 09:43:32;;;;;;;;;;;;;;;12.87;100.00;100337.34;5112110;28;20026;-71
2021/10/15 09:45:58;;;;;;;;;;;;;;;12.85;100.00;100334.78;5112046;28;20019;-71
2021/10/15 09:48:25;;;;;;;;;;;;;;;12.86;100.00;100317.41;5106885;28;20021;-71
2021/10/15 09:51:15;;;;;;;;;;;;;;;12.81;100.00;100314.25;5091808;28;19924;-72
2021/10/15 09:53:41;;;;;;;;;;;;;;;12.86;100.00;100311.94;5091568;28;19951;-71
2021/10/15 09:56:08;;;;;;;;;;;;;;;12.82;100.00;100318.72;5091477;28;20362;-71
2021/10/15 09:58:34;;;;;;;;;;;;;;;12.83;100.00;100312.25;5091881;28;20487;-71
2021/10/15 10:01:00;;;;;;;;;;;;;;;12.81;100.00;100314.25;5091636;28;19986;-71
2021/10/15 10:03:27;;;;;;;;;;;;;;;12.80;100.00;100345.25;5091615;28;19928;-71
2021/10/15 10:05:53;;;;;;;;;;;;;;;12.75;100.00;100327.63;5091486;28;19928;-71
2021/10/15 10:08:21;;;;;;;;;;;;;;;12.72;100.00;100326.94;5090176;28;20469;-71
2021/10/15 10:10:48;;;;;;;;;;;;;;;12.71;100.00;100325.19;5090520;28;20024;-72
2021/10/15 10:13:15;;;;;;;;;;;;;;;12.76;100.00;100330.22;5091440;28;20015;-72
2021/10/15 10:15:42;;;;;;;;;;;;;;;12.78;100.00;100328.19;5091602;28;20015;-71
2021/10/15 10:18:13;;;;;;;;;;;;;;;12.83;100.00;100334.06;5091435;28;19960;-71
2021/10/15 10:20:40;;;;;;;;;;;;;;;12.84;100.00;100335.78;5091598;28;20308;-71
2021/10/15 10:23:09;;;;;;;;;;;;;;;12.83;100.00;100331.31;5091400;28;19928;-71
2021/10/15 10:25:37;;;;;;;;;;;;;;;12.87;100.00;100331.91;5090866;28;19964;-71
2021/10/15 10:28:11;;;;;;;;;;;;;;;12.83;100.00;100323.16;5091283;28;19924;-71
2021/10/15 10:30:38;;;;;;;;;;;;;;;12.81;100.00;100325.16;5091722;28;20022;-71
2021/10/15 10:33:04;;;;;;;;;;;;;;;12.79;100.00;100321.75;5091357;28;19977;-70
2021/10/15 10:35:31;;;;;;;;;;;;;;;12.74;100.00;100326.78;5091308;28;19966;-70
2021/10/15 10:38:16;;;;;;;;;;;;;;;12.65;100.00;100327.66;5091177;28;20032;-71
2021/10/15 10:40:58;;;;;;;;;;;;;;;12.51;100.00;100340.72;5091454;28;20030;-71
2021/10/15 10:43:25;;;;;;;;;;;;;;;12.31;100.00;100336.34;5094265;28;20022;-71
2021/10/15 10:46:10;;;;;;;;;;;;;;;12.13;100.00;100345.25;5095017;28;20015;-71
2021/10/15 10:49:04;;;;;;;;;;;;;;;12.00;100.00;100350.13;5095357;28;19990;-70
2021/10/15 10:51:31;;;;;;;;;;;;;;;11.77;100.00;100358.50;5094813;28;19955;-71
2021/10/15 10:54:13;;;;;;;;;;;;;;;11.60;100.00;100361.91;5095166;28;19924;-72
2021/10/15 10:56:43;;;;;;;;;;;;;;;11.42;100.00;100368.00;5094837;28;20336;-71
2021/10/15 10:59:25;;;;;;;;;;;;;;;11.28;100.00;100371.13;5095031;28;20015;-71
2021/10/15 11:01:53;;;;;;;;;;;;;;;11.16;100.00;100371.22;5094564;28;20394;-71
2021/10/15 11:04:26;;;;;;;;;;;;;;;11.07;100.00;100382.91;5094870;28;20386;-70
2021/10/15 11:06:56;;;;;;;;;;;;;;;11.04;100.00;100385.91;5094802;28;19928;-71
2021/10/15 11:09:29;;;;;;;;;;;;;;;11.00;100.00;100387.19;5094853;28;20333;-71
2021/10/15 11:11:56;;;;;;;;;;;;;;;10.95;100.00;100384.00;5095004;28;19935;-71
2021/10/15 11:14:37;;;;;;;;;;;;;;;10.91;100.00;100385.28;5094699;28;20349;-71
2021/10/15 11:17:10;;;;;;;;;;;;;;;10.88;100.00;100389.13;5094333;28;19981;-71
2021/10/15 11:19:36;;;;;;;;;;;;;;;10.88;100.00;100399.97;5094979;28;19924;-71
2021/10/15 11:22:03;;;;;;;;;;;;;;;10.85;100.00;100402.94;5093338;28;19982;-71
2021/10/15 11:24:29;;;;;;;;;;;;;;;10.86;100.00;100416.41;5093306;28;19932;-70
2021/10/15 11:26:56;;;;;;;;;;;;;;;10.84;100.00;100415.66;5094312;28;20018;-70
2021/10/15 11:29:22;;;;;;;;;;;;;;;10.80;100.00;100403.34;5094591;28;19928;-70
2021/10/15 11:31:52;;;;;;;;;;;;;;;10.74;100.00;100409.31;5094740;28;19963;-70
2021/10/15 11:34:19;;;;;;;;;;;;;;;10.68;100.00;100416.16;5094020;28;20014;-70
2021/10/15 11:36:46;;;;;;;;;;;;;;;10.62;100.00;100413.97;5093039;28;19955;-70
2021/10/15 11:39:12;;;;;;;;;;;;;;;10.59;100.00;100425.09;5094051;28;20309;-69
2021/10/15 11:41:48;;;;;;;;;;;;;;;10.57;100.00;100437.06;5094315;28;19985;-70
2021/10/15 11:44:14;;;;;;;;;;;;;;;10.49;100.00;100435.88;5093911;28;20221;-71
2021/10/15 11:46:40;;;;;;;;;;;;;;;10.44;100.00;100451.69;5093720;28;19977;-70
2021/10/15 11:49:06;;;;;;;;;;;;;;;10.32;100.00;100501.53;5094815;28;20019;-70
2021/10/15 11:51:34;;;;;;;;;;;;;;;9.96;100.00;100506.31;5096190;28;19965;-71
2021/10/15 11:54:01;;;;;;;;;;;;;;;9.59;100.00;100496.59;5092544;28;20031;-70
2021/10/15 11:56:29;;;;;;;;;;;;;;;9.31;100.00;100489.84;5093961;28;19928;-70
2021/10/15 11:58:56;;;;;;;;;;;;;;;9.14;100.00;100488.47;5094035;28;20348;-70
2021/10/15 12:01:24;;;;;;;;;;;;;;;9.02;100.00;100490.31;5093858;28;19935;-69
2021/10/15 12:03:51;;;;;;;;;;;;;;;8.97;100.00;100489.81;5093913;28;19931;-70
2021/10/15 12:06:23;;;;;;;;;;;;;;;8.94;100.00;100495.44;5093726;28;19928;-69
2021/10/15 12:08:52;;;;;;;;;;;;;;;8.93;100.00;100499.16;5094115;28;19978;-70
2021/10/15 12:11:20;;;;;;;;;;;;;;;8.95;100.00;100491.75;5093441;28;20336;-70
2021/10/15 12:13:47;;;;;;;;;;;;;;;8.94;100.00;100499.03;5093799;28;20014;-69
2021/10/15 12:16:20;;;;;;;;;;;;;;;8.94;100.00;100508.97;5093775;28;20029;-70
2021/10/15 12:18:55;;;;;;;;;;;;;;;9.02;100.00;100511.97;5094109;28;19962;-70
2021/10/15 12:21:21;;;;;;;;;;;;;;;9.06;100.00;100499.91;5093747;28;20543;-70
2021/10/15 12:23:52;;;;;;;;;;;;;;;9.11;100.00;100500.38;5093422;28;19924;-69
2021/10/15 12:26:19;;;;;;;;;;;;;;;9.16;100.00;100498.19;5093062;28;19924;-69
2021/10/15 12:28:45;;;;;;;;;;;;;;;9.18;100.00;100500.81;5093468;28;20019;-70
2021/10/15 12:31:22;;;;;;;;;;;;;;;9.23;100.00;100503.13;5093501;28;19932;-70
2021/10/15 12:34:02;;;;;;;;;;;;;;;9.25;100.00;100502.03;5093148;28;19924;-70
2021/10/15 12:36:28;;;;;;;;;;;;;;;9.24;100.00;100504.88;5092771;28;19977;-69
2021/10/15 12:39:10;;;;;;;;;;;;;;;9.18;100.00;100490.81;5093154;28;19924;-70
2021/10/15 12:41:37;;;;;;;;;;;;;;;9.19;100.00;100494.38;5092840;28;20018;-69
2021/10/15 12:44:17;;;;;;;;;;;;;;;9.20;100.00;100517.78;5092649;28;20015;-70